Time;durP1;ratioP1;P1;durP2;ratioP2;P2;SDS_P1;SDS_P2;PMS_P1;PMS_P2;Temp;Humidity;BMP_temperature;BMP_pressure;BME280_temperature;BME280_humidity;BME280_pressure;Samples;Min_cycle;Max_cycle;Signal;HPM_P1;HPM_P2
2023/10/20 00:00:41;;;;;;;61.83;33.42;;;7.90;99.90;;;;;;5002097;28;20041;-48
2023/10/20 00:03:06;;;;;;;66.55;34.55;;;8.00;99.90;;;;;;5002396;28;20057;-48
2023/10/20 00:05:33;;;;;;;64.93;35.08;;;7.90;99.90;;;;;;5002395;28;20540;-48
2023/10/20 00:08:00;;;;;;;57.78;34.22;;;8.00;99.90;;;;;;4984520;28;20072;-49
2023/10/20 00:10:26;;;;;;;62.67;34.22;;;7.90;99.90;;;;;;5002536;28;20436;-46
2023/10/20 00:12:52;;;;;;;71.13;35.13;;;7.90;99.90;;;;;;4984590;28;20041;-47
2023/10/20 00:15:18;;;;;;;69.70;35.28;;;7.90;99.90;;;;;;5002194;28;20038;-50
2023/10/20 00:17:43;;;;;;;69.03;36.50;;;7.90;99.90;;;;;;5001927;28;20104;-48
2023/10/20 00:20:09;;;;;;;67.28;34.20;;;7.90;99.90;;;;;;4984111;28;20050;-47
2023/10/20 00:22:35;;;;;;;63.17;34.10;;;7.90;99.90;;;;;;5001626;28;20456;-50
2023/10/20 00:25:01;;;;;;;63.25;33.10;;;7.90;99.90;;;;;;5001330;28;20029;-46
2023/10/20 00:27:28;;;;;;;70.63;35.25;;;7.80;99.90;;;;;;5001401;28;20493;-49
2023/10/20 00:29:54;;;;;;;67.43;33.88;;;7.90;99.90;;;;;;5001354;28;20616;-46
2023/10/20 00:32:19;;;;;;;64.50;32.92;;;7.80;99.90;;;;;;4988265;28;20053;-49
2023/10/20 00:34:45;;;;;;;55.55;31.25;;;7.80;99.90;;;;;;4989428;28;20440;-50
2023/10/20 00:37:11;;;;;;;63.55;31.20;;;7.80;99.90;;;;;;5000466;28;20049;-49
2023/10/20 00:39:37;;;;;;;55.50;30.92;;;7.70;99.90;;;;;;4996422;28;20401;-47
2023/10/20 00:42:03;;;;;;;54.17;30.83;;;7.70;99.90;;;;;;5002218;28;20564;-48
2023/10/20 00:44:28;;;;;;;54.92;30.85;;;7.80;99.90;;;;;;5001791;28;20038;-50
2023/10/20 00:46:55;;;;;;;57.42;31.60;;;7.70;99.90;;;;;;5001569;28;20497;-46
2023/10/20 00:49:21;;;;;;;54.63;29.33;;;7.70;99.90;;;;;;5000821;28;20038;-46
2023/10/20 00:51:46;;;;;;;53.45;30.35;;;7.70;99.90;;;;;;5001114;28;20045;-47
2023/10/20 00:54:14;;;;;;;52.67;29.92;;;7.70;99.90;;;;;;5000959;28;20038;-49
2023/10/20 00:56:44;;;;;;;55.97;29.63;;;7.80;99.90;;;;;;4982836;28;20137;-48
2023/10/20 00:59:10;;;;;;;56.88;28.85;;;7.70;99.90;;;;;;5000743;28;20054;-49
2023/10/20 01:01:37;;;;;;;59.35;30.55;;;7.70;99.90;;;;;;5001055;28;20369;-46
2023/10/20 01:04:03;;;;;;;62.05;32.10;;;7.80;99.90;;;;;;5001162;28;20691;-49
2023/10/20 01:06:29;;;;;;;61.75;31.65;;;7.70;99.90;;;;;;5000772;28;20072;-50
2023/10/20 01:08:58;;;;;;;66.82;34.40;;;7.80;99.90;;;;;;5000655;28;20095;-48
2023/10/20 01:11:24;;;;;;;63.22;31.23;;;7.70;99.90;;;;;;5001026;28;20046;-51
2023/10/20 01:13:50;;;;;;;70.85;36.65;;;7.80;99.90;;;;;;4982481;28;20046;-47
2023/10/20 01:16:16;;;;;;;78.10;35.13;;;7.70;99.90;;;;;;4966500;28;20514;-48
2023/10/20 01:18:43;;;;;;;70.53;34.47;;;7.70;99.90;;;;;;5000327;28;20041;-49
2023/10/20 01:21:09;;;;;;;76.95;37.92;;;7.70;99.90;;;;;;5001022;28;20500;-47
2023/10/20 01:23:34;;;;;;;73.80;36.75;;;7.70;99.90;;;;;;5001128;28;20048;-46
2023/10/20 01:26:01;;;;;;;81.72;38.38;;;7.70;99.90;;;;;;4983146;28;20485;-45
2023/10/20 01:28:26;;;;;;;90.82;39.47;;;7.70;99.90;;;;;;4999985;28;20112;-46
2023/10/20 01:30:52;;;;;;;85.57;39.67;;;7.70;99.90;;;;;;5000464;28;20300;-46
2023/10/20 01:33:17;;;;;;;88.57;38.30;;;7.70;99.90;;;;;;4998546;28;20549;-46
2023/10/20 01:35:43;;;;;;;89.05;39.55;;;7.70;99.90;;;;;;4999924;28;20067;-46
2023/10/20 01:38:09;;;;;;;92.80;39.90;;;7.70;99.90;;;;;;4992949;28;20042;-47
2023/10/20 01:40:35;;;;;;;98.35;40.33;;;7.70;99.90;;;;;;4966214;28;20426;-48
2023/10/20 01:43:01;;;;;;;94.15;39.83;;;7.70;99.90;;;;;;5000207;28;20048;-47
2023/10/20 01:45:26;;;;;;;86.10;39.50;;;7.70;99.90;;;;;;5000796;28;20042;-47
2023/10/20 01:47:52;;;;;;;92.78;40.15;;;7.70;99.90;;;;;;4999396;28;20046;-46
2023/10/20 01:50:17;;;;;;;95.97;42.13;;;7.70;99.90;;;;;;4982590;28;20282;-47
2023/10/20 01:52:43;;;;;;;89.40;40.30;;;7.70;99.90;;;;;;5000085;28;20068;-47
2023/10/20 01:55:09;;;;;;;91.97;38.60;;;7.70;99.90;;;;;;4990508;28;20049;-46
2023/10/20 01:57:35;;;;;;;94.43;41.13;;;7.70;99.90;;;;;;4999254;28;20387;-49
2023/10/20 02:00:02;;;;;;;92.70;41.75;;;7.70;99.90;;;;;;5000445;28;20041;-48
2023/10/20 02:02:28;;;;;;;98.50;38.20;;;7.70;99.90;;;;;;4998592;28;20341;-46
2023/10/20 02:04:54;;;;;;;97.63;41.00;;;7.70;99.90;;;;;;4998974;28;20037;-47
2023/10/20 02:07:20;;;;;;;96.70;40.70;;;7.60;99.90;;;;;;4997582;28;20049;-49
2023/10/20 02:09:45;;;;;;;88.00;38.88;;;7.60;99.90;;;;;;4981326;28;20393;-48
2023/10/20 02:12:13;;;;;;;97.50;38.47;;;7.60;99.90;;;;;;4999801;28;20041;-48
2023/10/20 02:14:39;;;;;;;97.70;39.58;;;7.60;99.90;;;;;;5000797;28;20256;-46
2023/10/20 02:17:05;;;;;;;94.35;39.15;;;7.60;99.90;;;;;;4998184;28;20444;-49
2023/10/20 02:19:31;;;;;;;100.43;40.42;;;7.70;99.90;;;;;;4998763;28;20034;-47
2023/10/20 02:21:59;;;;;;;97.78;39.33;;;7.60;99.90;;;;;;4998840;28;20129;-49
2023/10/20 02:24:25;;;;;;;94.63;39.13;;;7.70;99.90;;;;;;4981281;28;20042;-46
2023/10/20 02:26:51;;;;;;;99.18;39.22;;;7.60;99.90;;;;;;4980755;28;20095;-47
2023/10/20 02:29:17;;;;;;;98.00;37.42;;;7.60;99.90;;;;;;4998299;28;20046;-46
2023/10/20 02:31:43;;;;;;;90.45;37.60;;;7.70;99.90;;;;;;4981225;28;20054;-47
2023/10/20 02:34:09;;;;;;;88.18;37.80;;;7.60;99.90;;;;;;4999291;28;20056;-46
2023/10/20 02:36:35;;;;;;;87.10;37.97;;;7.60;99.90;;;;;;4998214;28;20046;-46
2023/10/20 02:39:01;;;;;;;79.38;34.92;;;7.70;99.90;;;;;;4990947;28;20084;-49
2023/10/20 02:41:28;;;;;;;89.20;38.90;;;7.60;99.90;;;;;;4998828;28;20054;-46
2023/10/20 02:43:54;;;;;;;89.22;37.10;;;7.60;99.90;;;;;;4998891;28;20620;-46
2023/10/20 02:46:20;;;;;;;96.65;37.35;;;7.60;99.90;;;;;;4979772;28;20041;-49
2023/10/20 02:48:45;;;;;;;103.88;39.15;;;7.60;99.90;;;;;;4980429;28;20112;-46
2023/10/20 02:51:13;;;;;;;104.10;42.38;;;7.60;99.90;;;;;;4999045;28;20100;-48
2023/10/20 02:53:42;;;;;;;90.07;37.75;;;7.60;99.90;;;;;;4999000;28;20041;-46
2023/10/20 02:56:15;;;;;;;88.00;37.78;;;7.60;99.90;;;;;;4980968;28;20431;-48
2023/10/20 02:58:45;;;;;;;107.57;42.15;;;7.60;99.90;;;;;;4998203;28;20572;-49
2023/10/20 03:01:16;;;;;;;97.07;40.67;;;7.60;99.90;;;;;;4999096;28;20069;-49
2023/10/20 03:03:41;;;;;;;78.50;36.28;;;7.60;99.90;;;;;;4998704;28;20041;-46
2023/10/20 03:06:07;;;;;;;80.72;36.65;;;7.60;99.90;;;;;;4998847;28;20045;-45
2023/10/20 03:08:36;;;;;;;79.93;35.72;;;7.60;99.90;;;;;;4963746;28;20084;-49
2023/10/20 03:11:02;;;;;;;84.60;37.15;;;7.60;99.90;;;;;;4980689;28;20321;-49
2023/10/20 03:13:28;;;;;;;84.72;37.88;;;7.60;99.90;;;;;;4981569;28;20041;-45
2023/10/20 03:15:53;;;;;;;78.65;36.05;;;7.60;99.90;;;;;;4981993;28;20057;-46
2023/10/20 03:18:19;;;;;;;83.25;36.47;;;7.60;99.90;;;;;;4998181;28;20510;-46
2023/10/20 03:20:48;;;;;;;81.55;35.63;;;7.60;99.90;;;;;;4999144;28;20370;-44
2023/10/20 03:23:15;;;;;;;74.43;34.80;;;7.60;99.90;;;;;;4964727;28;20046;-45
2023/10/20 03:25:41;;;;;;;71.00;35.60;;;7.60;99.90;;;;;;4997620;28;20092;-45
2023/10/20 03:28:07;;;;;;;66.97;32.67;;;7.60;99.90;;;;;;4998583;28;20109;-49
2023/10/20 03:30:40;;;;;;;72.40;33.70;;;7.60;99.90;;;;;;4970452;28;20045;-48
2023/10/20 03:33:13;;;;;;;75.03;33.33;;;7.60;99.90;;;;;;4999139;28;20042;-49
2023/10/20 03:35:39;;;;;;;81.57;36.17;;;7.60;99.90;;;;;;4999096;28;20441;-47
2023/10/20 03:38:06;;;;;;;101.25;35.60;;;7.60;99.90;;;;;;4959802;28;20037;-49
2023/10/20 03:40:40;;;;;;;80.97;35.00;;;7.60;99.90;;;;;;4980968;28;20105;-48
2023/10/20 03:43:08;;;;;;;74.10;34.45;;;7.60;99.90;;;;;;4998403;28;20141;-48
2023/10/20 03:45:51;;;;;;;67.93;34.10;;;7.60;99.90;;;;;;4998707;28;20121;-49
2023/10/20 03:48:19;;;;;;;72.40;36.45;;;7.50;99.90;;;;;;4997893;28;20792;-49
2023/10/20 03:50:47;;;;;;;64.45;32.03;;;7.50;99.90;;;;;;4998864;28;20117;-46
2023/10/20 03:53:22;;;;;;;72.40;33.50;;;7.60;99.90;;;;;;4998598;28;20053;-48
2023/10/20 03:56:06;;;;;;;76.30;34.03;;;7.60;99.90;;;;;;4980860;28;20317;-49
2023/10/20 03:58:33;;;;;;;57.80;31.52;;;7.60;99.90;;;;;;4988455;28;20144;-46
2023/10/20 04:01:02;;;;;;;58.13;29.17;;;7.60;99.90;;;;;;4984248;28;20573;-47
2023/10/20 04:03:32;;;;;;;73.45;34.53;;;7.60;99.90;;;;;;4977756;28;20544;-48
2023/10/20 04:05:58;;;;;;;56.60;30.02;;;7.60;99.90;;;;;;4982381;28;20505;-50
2023/10/20 04:08:24;;;;;;;59.03;30.67;;;7.60;99.90;;;;;;5000672;28;20045;-49
2023/10/20 04:10:57;;;;;;;70.38;35.28;;;7.60;99.90;;;;;;5001355;28;20395;-50
2023/10/20 04:13:25;;;;;;;68.32;33.22;;;7.60;99.90;;;;;;5001364;28;20057;-49
2023/10/20 04:15:54;;;;;;;63.28;31.63;;;7.60;99.90;;;;;;5001413;28;20040;-48
2023/10/20 04:18:22;;;;;;;61.88;32.20;;;7.60;99.90;;;;;;5000465;28;20046;-49
2023/10/20 04:20:48;;;;;;;60.60;31.65;;;7.60;99.90;;;;;;5001365;28;20053;-49
2023/10/20 04:23:17;;;;;;;58.13;30.70;;;7.60;99.90;;;;;;4983612;28;20045;-50
2023/10/20 04:25:52;;;;;;;68.45;33.42;;;7.50;99.90;;;;;;5001155;28;20038;-48
2023/10/20 04:50:17;;;;;;;49.03;25.98;;;7.50;99.90;;;;;;5001345;28;20117;-45
2023/10/20 04:57:53;;;;;;;47.28;26.10;;;7.40;99.90;;;;;;5000626;28;20049;-47
2023/10/20 05:03:15;;;;;;;38.28;22.83;;;7.40;99.90;;;;;;5001087;28;20061;-50
2023/10/20 05:05:44;;;;;;;44.40;24.25;;;7.50;99.90;;;;;;5000969;28;20680;-46
2023/10/20 05:10:36;;;;;;;49.33;26.00;;;7.30;99.90;;;;;;4999440;28;20689;-48
2023/10/20 05:13:01;;;;;;;45.17;25.45;;;7.40;99.90;;;;;;5000876;28;20038;-46
2023/10/20 05:15:31;;;;;;;50.70;27.85;;;7.30;99.90;;;;;;5002251;28;20044;-49
2023/10/20 05:17:57;;;;;;;48.78;26.40;;;7.30;99.90;;;;;;4982752;28;20133;-49
2023/10/20 05:20:24;;;;;;;46.33;25.60;;;7.30;99.90;;;;;;5000646;28;20129;-47
2023/10/20 05:22:50;;;;;;;39.28;21.98;;;7.30;99.90;;;;;;5000807;28;20552;-47
2023/10/20 05:25:16;;;;;;;48.15;26.35;;;7.30;99.90;;;;;;5000853;28;20038;-47
2023/10/20 05:27:42;;;;;;;39.03;23.92;;;7.30;99.90;;;;;;4982670;28;20758;-48
2023/10/20 05:30:09;;;;;;;45.60;25.70;;;7.30;99.90;;;;;;4983104;28;20492;-48
2023/10/20 05:32:37;;;;;;;48.90;26.42;;;7.30;99.90;;;;;;5001092;28;20081;-46
2023/10/20 05:35:04;;;;;;;42.95;25.42;;;7.30;99.90;;;;;;5000873;28;20049;-50
2023/10/20 05:37:30;;;;;;;42.33;25.33;;;7.30;99.90;;;;;;4996340;28;20038;-47
2023/10/20 05:39:56;;;;;;;39.55;23.08;;;7.30;99.90;;;;;;4980577;28;20056;-48
2023/10/20 05:42:22;;;;;;;35.72;21.23;;;7.30;99.90;;;;;;5000733;28;20712;-48
2023/10/20 05:44:58;;;;;;;39.83;22.70;;;7.30;99.90;;;;;;4983204;28;20080;-46
2023/10/20 05:47:24;;;;;;;40.13;24.17;;;7.30;99.90;;;;;;4974959;28;20547;-46
2023/10/20 05:49:50;;;;;;;41.60;24.98;;;7.30;99.90;;;;;;5000291;28;20061;-50
2023/10/20 05:52:16;;;;;;;38.10;23.30;;;7.20;99.90;;;;;;5000623;28;20474;-49
2023/10/20 05:54:42;;;;;;;38.80;23.45;;;7.30;99.90;;;;;;4982798;28;20134;-49
2023/10/20 05:57:07;;;;;;;35.60;23.20;;;7.20;99.90;;;;;;4982106;28;20140;-49
2023/10/20 05:59:33;;;;;;;35.95;23.25;;;7.30;99.90;;;;;;4999825;28;20037;-48
2023/10/20 06:01:59;;;;;;;39.58;23.48;;;7.30;99.90;;;;;;5000422;28;20050;-47
2023/10/20 06:04:24;;;;;;;37.67;23.40;;;7.30;99.90;;;;;;5000365;28;20048;-49
2023/10/20 06:06:50;;;;;;;33.22;20.98;;;7.30;99.90;;;;;;4982063;28;20130;-50
2023/10/20 06:09:16;;;;;;;35.47;22.42;;;7.30;99.90;;;;;;4999913;28;20041;-48
2023/10/20 06:11:42;;;;;;;33.85;21.60;;;7.30;99.90;;;;;;5000367;28;20137;-46
2023/10/20 06:14:07;;;;;;;29.17;18.63;;;7.30;99.90;;;;;;4979556;28;20042;-47
2023/10/20 06:16:33;;;;;;;29.92;20.55;;;7.20;99.90;;;;;;4991825;28;20618;-50
2023/10/20 06:18:59;;;;;;;31.17;20.05;;;7.30;99.90;;;;;;4965851;28;20054;-48
2023/10/20 06:21:25;;;;;;;31.55;19.75;;;7.30;99.90;;;;;;5000256;28;20049;-48
2023/10/20 06:23:51;;;;;;;27.52;19.58;;;7.30;99.90;;;;;;5000105;28;20386;-46
2023/10/20 06:26:16;;;;;;;25.48;17.65;;;7.30;99.90;;;;;;4981927;28;20477;-46
2023/10/20 06:28:43;;;;;;;24.95;17.13;;;7.30;99.90;;;;;;4998484;28;20056;-47
2023/10/20 06:31:27;;;;;;;24.13;17.83;;;7.30;99.90;;;;;;4982835;28;20136;-47
2023/10/20 06:36:43;;;;;;;21.63;15.10;;;7.30;99.90;;;;;;4981794;28;20049;-47
2023/10/20 06:39:13;;;;;;;20.98;16.33;;;7.30;99.90;;;;;;4991541;28;20050;-50
2023/10/20 06:41:38;;;;;;;21.13;15.68;;;7.30;99.90;;;;;;4999794;28;20045;-45
2023/10/20 06:44:04;;;;;;;19.00;16.38;;;7.30;99.90;;;;;;5000438;28;20571;-47
2023/10/20 06:46:30;;;;;;;22.10;14.98;;;7.40;99.90;;;;;;4981984;28;20054;-48
2023/10/20 06:48:56;;;;;;;20.42;15.15;;;7.30;99.90;;;;;;4982082;28;20038;-47
2023/10/20 06:51:23;;;;;;;19.40;15.05;;;7.40;99.90;;;;;;5000132;28;20078;-46
2023/10/20 06:53:49;;;;;;;20.90;13.07;;;7.30;99.90;;;;;;4999675;28;20084;-47
2023/10/20 06:56:15;;;;;;;21.52;14.00;;;7.30;99.90;;;;;;4999682;28;20042;-46
2023/10/20 06:58:41;;;;;;;17.77;14.27;;;7.40;99.90;;;;;;4999860;28;20069;-46
2023/10/20 07:01:07;;;;;;;18.52;15.30;;;7.30;99.90;;;;;;5001365;28;20046;-46
2023/10/20 07:03:33;;;;;;;20.65;15.07;;;7.30;99.90;;;;;;4982516;28;20130;-46
2023/10/20 07:06:07;;;;;;;20.13;13.05;;;7.30;99.90;;;;;;4999518;28;20149;-45
2023/10/20 07:08:33;;;;;;;18.15;12.82;;;7.30;99.90;;;;;;4981065;28;20957;-50
2023/10/20 07:11:02;;;;;;;20.73;14.20;;;7.30;99.90;;;;;;4999096;28;20593;-48
2023/10/20 07:13:28;;;;;;;19.27;13.98;;;7.30;99.90;;;;;;4999277;28;20092;-51
2023/10/20 07:15:56;;;;;;;16.45;11.80;;;7.30;99.90;;;;;;4998527;28;20029;-58
2023/10/20 07:18:22;;;;;;;15.85;11.50;;;7.30;99.90;;;;;;4980555;28;20042;-58
2023/10/20 07:20:48;;;;;;;16.55;11.27;;;7.30;99.90;;;;;;4981328;28;20791;-58
2023/10/20 07:23:16;;;;;;;17.20;11.57;;;7.30;99.90;;;;;;4999227;28;20125;-58
2023/10/20 07:25:42;;;;;;;15.52;11.65;;;7.30;99.90;;;;;;4952784;28;20665;-58
2023/10/20 07:28:08;;;;;;;18.02;11.27;;;7.30;99.90;;;;;;4981266;28;20196;-58
2023/10/20 07:30:34;;;;;;;17.15;10.48;;;7.30;99.90;;;;;;4999731;28;20504;-57
2023/10/20 07:33:00;;;;;;;15.23;10.00;;;7.30;99.90;;;;;;4999972;28;20049;-58
2023/10/20 07:35:25;;;;;;;18.08;10.52;;;7.30;99.90;;;;;;5003039;28;20042;-58
2023/10/20 07:37:51;;;;;;;19.90;10.32;;;7.20;99.90;;;;;;4996240;28;20134;-58
2023/10/20 07:40:18;;;;;;;17.70;10.80;;;7.30;99.90;;;;;;4969219;28;20069;-57
2023/10/20 07:42:45;;;;;;;12.82;9.07;;;7.30;99.90;;;;;;5001375;28;20049;-57
2023/10/20 07:45:12;;;;;;;13.30;9.07;;;7.30;99.90;;;;;;5003199;28;20566;-58
2023/10/20 07:47:37;;;;;;;14.20;9.02;;;7.30;99.90;;;;;;5002183;28;20074;-57
2023/10/20 07:50:04;;;;;;;15.55;8.00;;;7.30;99.90;;;;;;4985460;28;20926;-57
2023/10/20 07:52:29;;;;;;;11.50;7.82;;;7.30;99.90;;;;;;5002887;28;20054;-57
2023/10/20 07:54:55;;;;;;;12.88;8.52;;;7.30;99.90;;;;;;5002675;28;20501;-57
2023/10/20 07:57:22;;;;;;;11.32;8.25;;;7.30;99.90;;;;;;5002596;28;20790;-57
2023/10/20 07:59:48;;;;;;;10.93;7.22;;;7.30;99.90;;;;;;4985139;28;20065;-57
2023/10/20 08:02:14;;;;;;;11.13;7.68;;;7.30;99.90;;;;;;5003056;28;20046;-56
2023/10/20 08:04:41;;;;;;;9.63;7.50;;;7.30;99.90;;;;;;4985422;28;20048;-57
2023/10/20 08:07:09;;;;;;;9.15;6.18;;;7.30;99.90;;;;;;5005182;28;20048;-56
2023/10/20 08:09:36;;;;;;;11.45;7.35;;;7.30;99.90;;;;;;4984769;28;20125;-56
2023/10/20 08:12:02;;;;;;;8.60;6.25;;;7.30;99.90;;;;;;4986004;28;20131;-55
2023/10/20 08:14:28;;;;;;;7.35;6.55;;;7.30;99.90;;;;;;5001772;28;20061;-56
2023/10/20 08:16:54;;;;;;;7.97;5.38;;;7.30;99.90;;;;;;4985413;28;20060;-56
2023/10/20 08:19:20;;;;;;;7.50;6.13;;;7.30;99.90;;;;;;5002190;28;20050;-58
2023/10/20 08:21:46;;;;;;;7.53;6.00;;;7.20;99.90;;;;;;5001966;28;20476;-56
2023/10/20 08:24:12;;;;;;;8.23;5.70;;;7.20;99.90;;;;;;4984649;28;20188;-57
2023/10/20 08:26:39;;;;;;;7.03;5.60;;;7.20;99.90;;;;;;4983620;28;20241;-56
2023/10/20 08:29:11;;;;;;;6.85;5.30;;;7.20;99.90;;;;;;5001624;28;20049;-56
2023/10/20 08:31:38;;;;;;;7.10;4.90;;;7.20;99.90;;;;;;4983943;28;20053;-56
2023/10/20 08:34:04;;;;;;;7.75;5.25;;;7.20;99.90;;;;;;4983939;28;20053;-56
2023/10/20 08:36:30;;;;;;;7.97;4.15;;;7.20;99.90;;;;;;4983547;28;20050;-55
2023/10/20 08:39:01;;;;;;;6.25;4.28;;;7.20;99.90;;;;;;4995442;28;20052;-55
2023/10/20 08:41:27;;;;;;;8.30;4.55;;;7.10;99.90;;;;;;4984055;28;20064;-55
2023/10/20 08:43:55;;;;;;;7.75;4.03;;;7.10;99.90;;;;;;4984495;28;20038;-55
2023/10/20 08:46:23;;;;;;;6.80;4.28;;;7.10;99.90;;;;;;5001066;28;20034;-55
2023/10/20 08:48:49;;;;;;;5.32;3.38;;;7.10;99.90;;;;;;5001202;28;20045;-52
2023/10/20 08:51:17;;;;;;;4.57;3.70;;;7.10;99.90;;;;;;5001194;28;20108;-54
2023/10/20 08:53:43;;;;;;;5.03;3.72;;;7.00;99.90;;;;;;4981414;28;20104;-54
2023/10/20 08:56:10;;;;;;;5.57;3.17;;;7.00;99.90;;;;;;5000603;28;20593;-53
2023/10/20 08:58:36;;;;;;;6.57;3.53;;;7.00;99.90;;;;;;4983423;28;20600;-52
2023/10/20 09:01:03;;;;;;;5.38;3.50;;;6.90;99.90;;;;;;4983333;28;20791;-53
2023/10/20 09:03:39;;;;;;;4.80;3.20;;;7.00;99.90;;;;;;4983505;28;20052;-52
2023/10/20 09:06:06;;;;;;;4.63;3.20;;;6.90;99.90;;;;;;5001002;28;20044;-49
2023/10/20 09:08:33;;;;;;;5.03;3.45;;;6.90;99.90;;;;;;4982772;28;20139;-51
2023/10/20 09:10:58;;;;;;;4.43;3.00;;;6.90;99.90;;;;;;4982813;28;20049;-52
2023/10/20 09:13:34;;;;;;;4.28;2.75;;;6.90;99.90;;;;;;5001152;28;20377;-51
2023/10/20 09:16:01;;;;;;;3.30;2.58;;;6.90;99.90;;;;;;4982307;28;20718;-58
2023/10/20 09:18:27;;;;;;;4.10;3.28;;;6.90;99.90;;;;;;5000436;28;20100;-58
2023/10/20 09:21:04;;;;;;;4.97;3.58;;;6.90;99.90;;;;;;5000864;28;20454;-59
2023/10/20 09:23:32;;;;;;;5.05;3.28;;;6.80;99.90;;;;;;5000611;28;20041;-57
2023/10/20 09:25:58;;;;;;;5.47;3.33;;;6.80;99.90;;;;;;5000559;28;20713;-57
2023/10/20 09:28:23;;;;;;;6.03;3.60;;;6.80;99.90;;;;;;5000036;28;20042;-56
2023/10/20 09:30:50;;;;;;;7.13;3.60;;;6.70;99.90;;;;;;4982749;28;20048;-57
2023/10/20 09:33:15;;;;;;;4.53;3.40;;;6.70;99.90;;;;;;5000893;28;20377;-57
2023/10/20 09:35:42;;;;;;;4.55;3.15;;;6.70;99.90;;;;;;5001080;28;20568;-57
2023/10/20 09:37:28;;;;;;;;;;;6.70;99.90;;;;;;3584457;28;1187;-57
